createdAt,value
2016-11-10T13:31:12.891Z,48
2016-11-10T13:32:21.533Z,48
2016-11-10T14:03:00.003Z,1096
2016-11-10T14:04:08.653Z,1140
2016-11-10T14:05:17.271Z,604
2016-11-10T14:06:25.909Z,1016
2016-11-10T14:07:34.555Z,1164
2016-11-10T14:08:49.058Z,624
2016-11-10T14:09:57.686Z,552
2016-11-10T14:11:06.302Z,552
2016-11-10T14:12:15.264Z,552
2016-11-10T14:13:23.910Z,556
2016-11-10T14:14:32.559Z,564
2016-11-10T14:15:41.501Z,568
2016-11-10T14:16:50.152Z,572
2016-11-10T14:17:58.804Z,576
2016-11-10T14:19:07.479Z,584
2016-11-10T14:20:16.128Z,572
2016-11-10T14:24:29.236Z,428
2016-11-10T14:25:38.178Z,712
2016-11-10T14:26:46.802Z,704
2016-11-10T14:27:55.444Z,696
2016-11-10T14:29:04.069Z,684
2016-11-10T14:30:12.713Z,680
2016-11-10T14:31:21.381Z,676
2016-11-10T14:32:30.049Z,676
2016-11-10T14:33:38.708Z,668
2016-11-10T14:34:47.344Z,668
2016-11-10T14:35:55.996Z,664
2016-11-10T14:37:04.641Z,664
2016-11-10T14:38:13.584Z,660
2016-11-10T14:40:09.626Z,16
2016-11-10T14:41:18.278Z,752
2016-11-10T14:42:26.911Z,732
2016-11-10T14:43:35.566Z,716
2016-11-10T14:44:44.203Z,692
2016-11-10T14:45:52.837Z,668
2016-11-10T14:47:01.478Z,644
2016-11-10T14:48:10.109Z,608
2016-11-10T14:49:18.776Z,576
2016-11-10T14:50:27.424Z,540
2016-11-10T14:51:36.109Z,508
2016-11-10T14:52:44.786Z,492
2016-11-10T14:53:53.448Z,480
2016-11-10T14:55:02.094Z,476
2016-11-10T14:56:10.744Z,464
2016-11-10T14:57:19.376Z,444
2016-11-10T14:58:27.990Z,420
2016-11-10T14:59:36.609Z,392
2016-11-10T15:00:45.561Z,372
2016-11-10T15:01:54.181Z,356
2016-11-10T15:03:02.804Z,344
2016-11-10T15:04:11.448Z,332
2016-11-10T15:05:20.071Z,320
2016-11-10T15:06:28.686Z,308
2016-11-10T15:07:37.301Z,296
2016-11-10T15:08:45.929Z,284
2016-11-10T15:09:54.581Z,264
2016-11-10T15:11:03.225Z,252
2016-11-10T15:12:11.885Z,240
2016-11-10T15:13:20.493Z,220
2016-11-10T15:14:29.111Z,208
2016-11-10T15:15:37.716Z,192
2016-11-10T15:16:46.355Z,176
2016-11-10T15:17:55.003Z,160
2016-11-10T15:19:03.644Z,144
2016-11-10T15:20:12.270Z,132
2016-11-10T15:21:20.915Z,120
2016-11-10T15:22:29.555Z,104
2016-11-10T15:23:38.176Z,92
2016-11-10T15:24:46.806Z,84
2016-11-10T15:25:55.424Z,72
2016-11-10T15:27:04.069Z,64
2016-11-10T15:28:12.705Z,56
2016-11-10T15:29:21.339Z,52
2016-11-10T15:30:29.998Z,44
2016-11-10T15:31:38.626Z,36
2016-11-10T15:32:47.244Z,32
2016-11-10T15:33:55.903Z,28
2016-11-10T15:35:04.540Z,24
2016-11-10T15:36:13.162Z,20
2016-11-10T15:37:21.762Z,16
2016-11-10T15:38:30.377Z,16
2016-11-10T15:39:39.004Z,12
2016-11-10T15:40:47.950Z,8
2016-11-10T15:41:56.570Z,8
2016-11-10T15:43:05.213Z,8
2016-11-10T15:44:13.854Z,8
2016-11-10T15:45:22.461Z,4
2016-11-10T15:46:31.093Z,4
2016-11-10T15:47:39.722Z,4
2016-11-10T15:48:48.624Z,0
2016-11-10T15:49:57.261Z,4
2016-11-10T15:51:05.861Z,4
2016-11-10T15:52:14.485Z,0
2016-11-10T15:53:23.131Z,0
2016-11-10T15:54:31.798Z,0
2016-11-10T15:55:40.426Z,0
2016-11-10T15:56:49.069Z,0
2016-11-10T15:57:57.711Z,0
2016-11-10T15:59:06.337Z,0
2016-11-10T16:00:14.980Z,0
2016-11-10T16:01:23.632Z,0
2016-11-10T16:02:32.275Z,0
2016-11-10T16:03:40.899Z,0
2016-11-10T16:04:49.838Z,0
2016-11-10T16:05:58.477Z,0
2016-11-10T16:07:07.412Z,0
2016-11-10T16:08:16.057Z,0
2016-11-10T16:09:24.673Z,0
2016-11-10T16:10:33.273Z,0
2016-11-10T16:11:41.932Z,0
2016-11-10T16:12:50.561Z,0
2016-11-10T16:13:59.265Z,0
2016-11-10T16:15:07.878Z,0
2016-11-10T16:16:16.491Z,0
2016-11-10T16:17:25.120Z,0
2016-11-10T16:18:33.722Z,0
2016-11-10T16:19:42.338Z,0
2016-11-10T16:20:50.934Z,0
2016-11-10T16:21:59.572Z,0
2016-11-10T16:23:08.201Z,0
2016-11-10T16:24:16.826Z,0
2016-11-10T16:25:25.461Z,0
2016-11-10T16:26:34.089Z,0
2016-11-10T16:27:42.710Z,0
2016-11-10T16:28:51.337Z,0
2016-11-10T16:29:59.970Z,0
2016-11-10T16:31:08.595Z,0
2016-11-10T16:32:17.213Z,0
2016-11-10T16:33:25.850Z,0
2016-11-10T16:34:34.491Z,0
2016-11-10T16:35:43.108Z,0
2016-11-10T16:36:51.750Z,0
2016-11-10T16:38:00.350Z,0
2016-11-10T16:39:08.989Z,0
2016-11-10T16:40:17.614Z,0
2016-11-10T16:41:26.244Z,0
2016-11-10T16:42:34.903Z,0
2016-11-10T16:43:43.821Z,0
2016-11-10T16:44:52.448Z,0
2016-11-10T16:46:01.090Z,0
2016-11-10T16:47:09.736Z,0
2016-11-10T16:48:18.365Z,0
2016-11-10T16:49:26.993Z,0
2016-11-10T16:50:35.624Z,0
2016-11-10T16:51:44.255Z,0
2016-11-10T16:52:52.879Z,0
2016-11-10T16:54:01.522Z,0
2016-11-10T16:55:10.459Z,0
2016-11-10T16:56:19.112Z,0
2016-11-10T16:57:27.708Z,0
2016-11-10T16:58:36.355Z,0
2016-11-10T16:59:44.976Z,0
2016-11-10T17:00:53.601Z,0
2016-11-10T17:02:02.222Z,0
2016-11-10T17:03:10.862Z,0
2016-11-10T17:04:19.485Z,0
2016-11-10T17:05:28.115Z,0
2016-11-10T17:06:36.730Z,0
2016-11-10T17:07:45.350Z,0
2016-11-10T17:08:54.000Z,0
2016-11-10T17:10:02.599Z,0
2016-11-10T17:11:11.241Z,0
2016-11-10T17:12:19.880Z,0
2016-11-10T17:13:28.505Z,0
2016-11-10T17:14:37.154Z,0
2016-11-10T17:15:45.772Z,0
2016-11-10T17:16:54.373Z,0
2016-11-10T17:18:03.010Z,0
2016-11-10T17:19:11.641Z,0
2016-11-10T17:20:20.283Z,0
2016-11-10T17:21:28.924Z,0
2016-11-10T17:22:37.548Z,0
2016-11-10T17:23:46.199Z,0
2016-11-10T17:24:54.846Z,0
2016-11-10T17:26:03.467Z,0
2016-11-10T17:27:12.083Z,0
2016-11-10T17:28:20.712Z,0
2016-11-10T17:29:29.329Z,0
2016-11-10T17:30:37.954Z,0
2016-11-10T17:31:46.598Z,0
2016-11-10T17:32:55.219Z,0
2016-11-10T17:34:03.856Z,0
2016-11-10T17:35:12.474Z,0
2016-11-10T17:36:21.126Z,0
2016-11-10T17:37:29.728Z,0
2016-11-10T17:38:38.347Z,0
2016-11-10T17:39:46.944Z,0
2016-11-10T17:40:55.585Z,0
2016-11-10T17:42:04.211Z,0
2016-11-10T17:43:12.853Z,0
2016-11-10T17:44:21.459Z,0
2016-11-10T17:45:30.097Z,0
2016-11-10T17:46:38.734Z,0
2016-11-10T17:47:47.364Z,0
2016-11-10T17:48:55.985Z,0
2016-11-10T17:50:04.647Z,0
2016-11-10T17:51:13.270Z,0
2016-11-10T17:52:21.902Z,0
2016-11-10T17:53:30.518Z,0
2016-11-10T17:54:39.139Z,0
2016-11-10T17:55:47.752Z,0
2016-11-10T17:56:56.398Z,0
2016-11-10T17:58:05.027Z,0
2016-11-10T17:59:13.644Z,0
2016-11-10T18:00:22.274Z,0
2016-11-10T18:01:30.940Z,0
2016-11-10T18:02:39.562Z,0
2016-11-10T18:03:48.163Z,0
2016-11-10T18:04:56.783Z,0
2016-11-10T18:06:05.416Z,0
2016-11-10T18:07:14.045Z,0
2016-11-10T18:08:22.666Z,0
2016-11-10T18:09:31.262Z,0
2016-11-10T18:10:39.883Z,0
2016-11-10T18:11:48.512Z,0
2016-11-10T18:12:57.154Z,0
2016-11-10T18:14:05.772Z,0
2016-11-10T18:15:14.373Z,0
2016-11-10T18:16:23.014Z,0
2016-11-10T18:17:31.936Z,0
2016-11-10T18:18:40.531Z,0
2016-11-10T18:19:49.169Z,0
2016-11-10T18:20:57.820Z,0
2016-11-10T18:22:06.461Z,0
2016-11-10T18:23:15.115Z,0
2016-11-10T18:24:23.761Z,0
2016-11-10T18:25:32.388Z,0
2016-11-10T18:26:41.004Z,0
2016-11-10T18:27:49.625Z,0
2016-11-10T18:28:58.247Z,0
2016-11-10T18:30:06.867Z,0
2016-11-10T18:31:15.518Z,0
2016-11-10T18:32:24.209Z,0
2016-11-10T18:33:32.806Z,0
2016-11-10T18:34:41.423Z,0
2016-11-10T18:35:50.055Z,0
2016-11-10T18:36:58.672Z,0
2016-11-10T18:38:07.316Z,0
2016-11-10T18:39:15.937Z,0
2016-11-10T18:40:24.839Z,0
2016-11-10T18:41:33.485Z,0
2016-11-10T18:42:42.128Z,0
2016-11-10T18:43:50.792Z,0
2016-11-10T18:44:59.425Z,0
2016-11-10T18:46:08.055Z,0
2016-11-10T18:47:16.684Z,0
2016-11-10T18:48:25.285Z,0
2016-11-10T18:49:33.907Z,0
2016-11-10T18:50:42.539Z,0
2016-11-10T18:51:51.176Z,0
2016-11-10T18:52:59.811Z,0
2016-11-10T18:54:08.440Z,0
2016-11-10T18:55:17.082Z,0
2016-11-10T18:56:25.703Z,0
2016-11-10T18:57:34.316Z,0
2016-11-10T18:58:43.245Z,0
2016-11-10T18:59:52.183Z,0
2016-11-10T19:01:01.135Z,0
2016-11-10T19:02:09.826Z,0
2016-11-10T19:03:18.429Z,0
2016-11-10T19:04:27.051Z,0
2016-11-10T19:05:35.677Z,0
2016-11-10T19:06:44.318Z,0
2016-11-10T19:07:52.919Z,0
2016-11-10T19:09:01.539Z,0
2016-11-10T19:10:10.160Z,0
2016-11-10T19:11:18.809Z,0
2016-11-10T19:12:27.417Z,0
2016-11-10T19:13:36.046Z,0
2016-11-10T19:14:44.687Z,0
2016-11-10T19:15:53.311Z,0
2016-11-10T19:17:01.938Z,0
2016-11-10T19:18:10.584Z,0
2016-11-10T19:19:19.202Z,0
2016-11-10T19:20:27.834Z,0
2016-11-10T19:21:36.450Z,0
2016-11-10T19:22:45.063Z,0
2016-11-10T19:23:53.690Z,0
2016-11-10T19:25:02.335Z,0
2016-11-10T19:26:10.954Z,0
2016-11-10T19:27:19.598Z,0
2016-11-10T19:28:28.269Z,0
2016-11-10T19:29:36.896Z,0
2016-11-10T19:30:45.534Z,0
2016-11-10T19:31:54.164Z,0
2016-11-10T19:33:02.780Z,0
2016-11-10T19:34:11.381Z,0
2016-11-10T19:35:20.026Z,0
2016-11-10T19:36:28.659Z,0
2016-11-10T19:37:37.264Z,0
2016-11-10T19:38:45.902Z,0
2016-11-10T19:39:54.852Z,0
2016-11-10T19:41:03.477Z,0
2016-11-10T19:42:12.100Z,0
2016-11-10T19:43:20.723Z,0
2016-11-10T19:44:29.344Z,0
2016-11-10T19:45:37.953Z,0
2016-11-10T19:46:46.588Z,0
2016-11-10T19:47:55.220Z,0
2016-11-10T19:49:03.848Z,0
2016-11-10T19:50:12.474Z,0
2016-11-10T19:51:21.107Z,0
2016-11-10T19:52:29.757Z,0
2016-11-10T19:53:38.386Z,0
2016-11-10T19:54:47.025Z,0
2016-11-10T19:55:55.649Z,0
2016-11-10T19:57:04.270Z,0
2016-11-10T19:58:12.909Z,0
2016-11-10T19:59:21.991Z,0
2016-11-10T20:00:30.636Z,0
2016-11-10T20:01:39.262Z,0
2016-11-10T20:02:47.879Z,0
2016-11-10T20:03:56.497Z,0
2016-11-10T20:05:05.149Z,0
2016-11-10T20:06:13.805Z,0
2016-11-10T20:07:22.435Z,0
2016-11-10T20:08:31.072Z,0
2016-11-10T20:09:39.676Z,0
2016-11-10T20:10:48.272Z,0
2016-11-10T20:11:57.211Z,0
2016-11-10T20:13:05.843Z,0
2016-11-10T20:14:14.760Z,0
2016-11-10T20:15:23.356Z,0
2016-11-10T20:16:31.977Z,0
2016-11-10T20:17:40.580Z,0
2016-11-10T20:18:49.224Z,0
2016-11-10T20:19:57.847Z,0
2016-11-10T20:21:06.479Z,0
2016-11-10T20:22:15.112Z,0
2016-11-10T20:23:23.758Z,0
2016-11-10T20:24:32.380Z,0
2016-11-10T20:25:41.000Z,0
2016-11-10T20:26:49.623Z,0
2016-11-10T20:27:58.261Z,0
2016-11-10T20:29:07.210Z,0
2016-11-10T20:30:15.836Z,0
2016-11-10T20:31:24.457Z,0
2016-11-10T20:32:33.103Z,0
2016-11-10T20:33:41.721Z,0
2016-11-10T20:34:50.362Z,0
2016-11-10T20:35:58.963Z,0
2016-11-10T20:37:07.581Z,0
2016-11-10T20:38:16.284Z,0
2016-11-10T20:39:24.956Z,0
2016-11-10T20:40:33.659Z,0
2016-11-10T20:41:42.300Z,0
2016-11-10T20:42:50.963Z,0
2016-11-10T20:43:59.609Z,0
2016-11-10T20:45:08.302Z,0
2016-11-10T20:46:17.046Z,0
2016-11-10T20:47:25.797Z,0
2016-11-10T20:48:34.582Z,0
2016-11-10T20:49:43.288Z,0
2016-11-10T20:50:52.016Z,0
2016-11-10T20:52:00.823Z,0
2016-11-10T20:53:09.508Z,0
2016-11-10T20:54:18.146Z,0
2016-11-10T20:55:26.774Z,0
2016-11-10T20:56:35.697Z,0
2016-11-10T20:57:44.325Z,0
2016-11-10T20:58:52.982Z,0
2016-11-10T21:00:01.606Z,0
2016-11-10T21:01:10.258Z,0
2016-11-10T21:02:18.982Z,0
2016-11-10T21:03:27.815Z,0
2016-11-10T21:04:36.807Z,0
2016-11-10T21:05:45.562Z,0
2016-11-10T21:06:54.274Z,0
2016-11-10T21:08:03.000Z,0
2016-11-10T21:09:11.739Z,0
2016-11-10T21:10:20.388Z,0
2016-11-10T21:11:29.021Z,0
2016-11-10T21:12:37.643Z,0
2016-11-10T21:13:46.306Z,0
2016-11-10T21:14:54.932Z,0
2016-11-10T21:16:03.554Z,0
2016-11-10T21:17:12.194Z,0
2016-11-10T21:18:20.837Z,0
2016-11-10T21:19:29.461Z,0
2016-11-10T21:20:38.088Z,0
2016-11-10T21:21:46.709Z,0
2016-11-10T21:22:55.329Z,0
2016-11-10T21:24:03.953Z,0
2016-11-10T21:25:12.592Z,0
2016-11-10T21:26:21.539Z,0
2016-11-10T21:27:30.163Z,0
2016-11-10T21:28:38.766Z,0
2016-11-10T21:29:47.364Z,0
2016-11-10T21:30:55.994Z,0
2016-11-10T21:32:04.627Z,0
2016-11-10T21:33:13.248Z,0
2016-11-10T21:34:21.868Z,0
2016-11-10T21:35:30.511Z,0
2016-11-10T21:36:39.424Z,0
2016-11-10T21:37:48.071Z,0
2016-11-10T21:38:56.679Z,0
2016-11-10T21:40:05.272Z,0
2016-11-10T21:41:13.913Z,0
2016-11-10T21:42:22.539Z,0
2016-11-10T21:43:31.160Z,0
2016-11-10T21:44:39.785Z,0
2016-11-10T21:45:48.419Z,0
2016-11-10T21:46:57.352Z,0
2016-11-10T21:48:05.986Z,0
2016-11-10T21:49:14.618Z,0
2016-11-10T21:50:23.259Z,0
2016-11-10T21:51:31.882Z,0
2016-11-10T21:52:40.513Z,0
2016-11-10T21:53:49.153Z,0
2016-11-10T21:54:57.770Z,0
2016-11-10T21:56:06.371Z,0
2016-11-10T21:57:15.018Z,0
2016-11-10T21:58:23.938Z,0
2016-11-10T21:59:32.556Z,0
2016-11-10T22:00:41.176Z,0
2016-11-10T22:01:49.805Z,0
2016-11-10T22:02:58.418Z,0
2016-11-10T22:04:07.368Z,0
2016-11-10T22:05:15.987Z,0
2016-11-10T22:06:24.629Z,0
2016-11-10T22:07:33.255Z,0
2016-11-10T22:08:41.855Z,0
2016-11-10T22:09:50.500Z,0
2016-11-10T22:10:59.119Z,0
2016-11-10T22:12:07.738Z,0
2016-11-10T22:13:16.356Z,0
2016-11-10T22:14:24.981Z,0
2016-11-10T22:15:33.619Z,0
2016-11-10T22:16:42.248Z,0
2016-11-10T22:17:51.190Z,0
2016-11-10T22:18:59.789Z,0
2016-11-10T22:20:08.414Z,0
2016-11-10T22:21:17.052Z,0
2016-11-10T22:22:25.686Z,0
2016-11-10T22:23:34.346Z,0
2016-11-10T22:24:42.967Z,0
2016-11-10T22:25:51.612Z,0
2016-11-10T22:27:00.272Z,0
2016-11-10T22:28:09.187Z,0
2016-11-10T22:29:17.821Z,0
2016-11-10T22:30:26.467Z,0
2016-11-10T22:31:35.093Z,0
2016-11-10T22:32:44.017Z,0
2016-11-10T22:33:52.617Z,0
2016-11-10T22:35:01.264Z,0
2016-11-10T22:36:09.905Z,0
2016-11-10T22:37:18.537Z,0
2016-11-10T22:38:27.152Z,0
2016-11-10T22:39:35.798Z,0
2016-11-10T22:40:44.443Z,0
2016-11-10T22:41:53.068Z,0
2016-11-10T22:43:01.713Z,0
2016-11-10T22:44:10.353Z,0
2016-11-10T22:45:18.974Z,0
2016-11-10T22:46:27.570Z,0
2016-11-10T22:47:36.167Z,0
2016-11-10T22:48:44.810Z,0
2016-11-10T22:49:53.441Z,0
2016-11-10T22:51:02.377Z,0
2016-11-10T22:52:11.296Z,0
2016-11-10T22:53:19.928Z,0
2016-11-10T22:54:28.548Z,0
2016-11-10T22:55:37.199Z,0
2016-11-10T22:56:45.835Z,0
2016-11-10T22:57:54.457Z,0
2016-11-10T22:59:03.082Z,0
2016-11-10T23:00:11.705Z,0
2016-11-10T23:01:20.320Z,0
2016-11-10T23:02:28.951Z,0
2016-11-10T23:03:37.562Z,0
2016-11-10T23:04:46.187Z,0
2016-11-10T23:05:54.810Z,0
2016-11-10T23:07:03.432Z,0
2016-11-10T23:08:12.047Z,0
2016-11-10T23:09:20.668Z,0
2016-11-10T23:10:29.269Z,0
2016-11-10T23:11:37.885Z,0
2016-11-10T23:12:46.528Z,0
2016-11-10T23:13:55.157Z,0
2016-11-10T23:15:03.781Z,0
2016-11-10T23:16:12.424Z,0
2016-11-10T23:17:21.041Z,0
2016-11-10T23:18:29.666Z,0
2016-11-10T23:19:38.284Z,0
2016-11-10T23:20:46.908Z,0
2016-11-10T23:21:55.547Z,0
2016-11-10T23:23:04.176Z,0
2016-11-10T23:24:12.797Z,0
2016-11-10T23:25:21.415Z,0
2016-11-10T23:26:30.014Z,0
2016-11-10T23:27:38.630Z,0
2016-11-10T23:28:47.252Z,0
2016-11-10T23:29:55.848Z,0
2016-11-10T23:31:04.486Z,0
2016-11-10T23:32:13.124Z,0
2016-11-10T23:33:21.737Z,0
2016-11-10T23:34:30.350Z,0
2016-11-10T23:35:38.979Z,0
2016-11-10T23:36:47.575Z,0
2016-11-10T23:37:56.175Z,0
2016-11-10T23:39:04.859Z,0
2016-11-10T23:40:13.464Z,0
2016-11-10T23:41:22.060Z,0
2016-11-10T23:42:30.680Z,0
2016-11-10T23:43:39.301Z,0
2016-11-10T23:44:47.927Z,0
2016-11-10T23:45:56.571Z,0
2016-11-10T23:47:05.191Z,0
2016-11-10T23:48:13.811Z,0
2016-11-10T23:49:22.429Z,0
2016-11-10T23:50:31.078Z,0
2016-11-10T23:51:39.701Z,0
2016-11-10T23:52:48.320Z,0
2016-11-10T23:53:56.917Z,0
2016-11-10T23:55:05.545Z,0
2016-11-10T23:56:14.189Z,0
2016-11-10T23:57:22.809Z,0
2016-11-10T23:58:31.425Z,0
2016-11-10T23:59:40.365Z,0
